createdAt,value
2023-01-27T00:03:18.455Z,97798.09
2023-01-27T00:07:20.954Z,97785.41
2023-01-27T00:11:43.389Z,97779.34
2023-01-27T00:15:45.422Z,97775.84
2023-01-27T00:19:47.617Z,97780.56
2023-01-27T00:24:08.447Z,97776.34
2023-01-27T00:28:10.643Z,97770.50
2023-01-27T00:32:31.782Z,97774.66
2023-01-27T00:36:33.932Z,97764.84
2023-01-27T00:40:35.959Z,97763.06
2023-01-27T00:44:38.038Z,97765.03
2023-01-27T00:48:40.038Z,97768.84
2023-01-27T00:52:42.024Z,97775.25
2023-01-27T00:56:45.070Z,97766.22
2023-01-27T01:00:47.627Z,97767.91
2023-01-27T01:04:49.762Z,97772.94
2023-01-27T01:08:52.526Z,97769.03
2023-01-27T01:12:54.488Z,97769.13
2023-01-27T01:16:56.615Z,97769.28
2023-01-27T01:20:58.767Z,97775.66
2023-01-27T01:25:00.901Z,97774.41
2023-01-27T01:29:04.446Z,97760.09
2023-01-27T01:33:06.677Z,97759.53
2023-01-27T01:37:08.695Z,97753.63
2023-01-27T01:41:28.927Z,97753.97
2023-01-27T01:45:34.187Z,97759.13
2023-01-27T01:49:39.373Z,97741.50
2023-01-27T01:53:43.935Z,97745.56
2023-01-27T01:57:46.196Z,97742.13
2023-01-27T02:01:48.984Z,97748.56
2023-01-27T02:05:53.530Z,97749.41
2023-01-27T02:09:56.523Z,97740.00
2023-01-27T02:14:00.828Z,97750.03
2023-01-27T02:18:03.942Z,97738.00
2023-01-27T02:22:11.180Z,97742.81
2023-01-27T02:26:19.279Z,97747.53
2023-01-27T02:30:21.364Z,97754.50
2023-01-27T02:34:26.381Z,97749.22
2023-01-27T02:38:31.180Z,97740.81
2023-01-27T02:42:33.271Z,97743.69
2023-01-27T02:46:35.635Z,97737.88
2023-01-27T02:50:37.591Z,97739.34
2023-01-27T02:54:39.781Z,97737.44
2023-01-27T02:58:43.029Z,97746.47
2023-01-27T03:02:56.642Z,97746.94
2023-01-27T03:06:59.718Z,97743.25
2023-01-27T03:11:06.510Z,97737.59
2023-01-27T03:15:29.005Z,97741.69
2023-01-27T03:19:31.161Z,97729.94
2023-01-27T03:23:36.720Z,97733.06
2023-01-27T03:27:39.248Z,97739.28
2023-01-27T03:32:07.068Z,97726.19
2023-01-27T03:36:28.332Z,97725.53
2023-01-27T03:40:49.191Z,97743.94
2023-01-27T03:45:10.054Z,97726.66
2023-01-27T03:49:12.069Z,97733.34
2023-01-27T03:53:13.977Z,97734.38
2023-01-27T03:57:16.054Z,97734.94
2023-01-27T04:01:23.106Z,97733.81
2023-01-27T04:05:44.162Z,97728.00
2023-01-27T04:09:46.522Z,97737.13
2023-01-27T04:13:48.651Z,97735.06
2023-01-27T04:17:50.829Z,97738.59
2023-01-27T04:21:53.326Z,97732.63
2023-01-27T04:25:56.739Z,97741.72
2023-01-27T04:29:58.816Z,97742.75
2023-01-27T04:34:00.909Z,97741.94
2023-01-27T04:38:02.947Z,97742.09
2023-01-27T04:42:05.053Z,97739.59
2023-01-27T04:46:07.202Z,97741.47
2023-01-27T04:50:09.688Z,97733.94
2023-01-27T04:54:12.360Z,97748.09
2023-01-27T04:58:15.180Z,97755.06
2023-01-27T05:02:17.372Z,97756.56
2023-01-27T05:06:19.701Z,97745.44
2023-01-27T05:10:21.721Z,97748.16
2023-01-27T05:14:23.851Z,97758.19
2023-01-27T05:18:25.855Z,97756.34
2023-01-27T05:22:27.827Z,97776.38
2023-01-27T05:26:30.111Z,97777.28
2023-01-27T05:30:31.998Z,97782.22
2023-01-27T05:34:33.954Z,97777.03
2023-01-27T05:38:36.006Z,97784.06
2023-01-27T05:42:38.026Z,97789.09
2023-01-27T05:46:41.000Z,97798.56
2023-01-27T05:50:43.033Z,97805.31
2023-01-27T05:54:46.062Z,97810.25
2023-01-27T05:58:48.231Z,97809.69
2023-01-27T06:02:50.436Z,97805.28
2023-01-27T06:06:52.414Z,97813.19
2023-01-27T06:10:54.494Z,97814.03
2023-01-27T06:19:40.749Z,97818.13
2023-01-27T06:23:42.822Z,97829.00
2023-01-27T06:27:45.032Z,97817.09
2023-01-27T06:31:47.266Z,97836.22
2023-01-27T06:35:49.533Z,97833.13
2023-01-27T06:39:51.553Z,97833.69
2023-01-27T06:43:53.868Z,97833.09
2023-01-27T06:47:57.064Z,97834.25
2023-01-27T06:51:59.267Z,97830.44
2023-01-27T06:56:01.917Z,97827.03
2023-01-27T07:00:04.092Z,97843.16
2023-01-27T07:04:06.500Z,97851.25
2023-01-27T07:08:08.730Z,97846.22
2023-01-27T07:12:10.991Z,97846.03
2023-01-27T07:16:13.086Z,97862.72
2023-01-27T07:20:15.428Z,97858.97
2023-01-27T07:24:17.754Z,97858.16
2023-01-27T07:28:19.816Z,97857.22
2023-01-27T07:32:21.845Z,97862.38
2023-01-27T07:36:23.827Z,97865.56
2023-01-27T07:40:25.973Z,97867.81
2023-01-27T07:44:28.231Z,97870.31
2023-01-27T07:48:30.271Z,97870.78
2023-01-27T07:52:32.296Z,97865.97
2023-01-27T07:56:36.460Z,97870.75
2023-01-27T08:00:38.529Z,97873.94
2023-01-27T08:04:52.433Z,97870.59
2023-01-27T08:08:54.939Z,97877.81
2023-01-27T08:12:57.025Z,97871.94
2023-01-27T08:16:59.067Z,97883.97
2023-01-27T08:21:02.011Z,97849.97
2023-01-27T08:25:04.191Z,97870.06
2023-01-27T08:29:06.117Z,97871.16
2023-01-27T08:33:08.085Z,97874.44
2023-01-27T08:37:10.075Z,97883.59
2023-01-27T08:41:16.024Z,97893.47
2023-01-27T08:45:21.247Z,97893.59
2023-01-27T08:49:23.263Z,97907.81
2023-01-27T08:53:25.725Z,97886.28
2023-01-27T08:57:27.701Z,97906.66
2023-01-27T09:01:29.843Z,97884.47
2023-01-27T09:05:32.091Z,97891.19
2023-01-27T09:09:34.047Z,97895.97
2023-01-27T09:13:36.028Z,97894.13
2023-01-27T09:17:38.278Z,97892.06
2023-01-27T09:21:42.792Z,97910.59
2023-01-27T09:25:44.883Z,97933.06
2023-01-27T09:29:46.835Z,97914.66
2023-01-27T09:33:49.080Z,97920.50
2023-01-27T09:37:56.757Z,97922.19
2023-01-27T09:42:08.038Z,97921.00
2023-01-27T09:46:21.928Z,97917.56
2023-01-27T09:50:50.307Z,97930.91
2023-01-27T09:54:56.707Z,97933.88
2023-01-27T09:59:05.136Z,97941.78
2023-01-27T10:03:30.092Z,97918.81
2023-01-27T10:07:38.572Z,97916.78
2023-01-27T10:11:59.719Z,97920.56
2023-01-27T10:16:09.526Z,97933.50
2023-01-27T10:20:21.571Z,97932.59
2023-01-27T10:24:26.792Z,97912.34
2023-01-27T10:28:30.273Z,97931.72
2023-01-27T10:32:39.757Z,97912.00
2023-01-27T10:37:08.259Z,97908.59
2023-01-27T10:41:30.526Z,97899.50
2023-01-27T10:45:45.794Z,97886.25
2023-01-27T10:49:58.129Z,97898.59
2023-01-27T10:54:11.227Z,97883.16
2023-01-27T10:58:37.286Z,97888.31
2023-01-27T11:02:42.406Z,97888.84
2023-01-27T11:06:45.834Z,97884.06
2023-01-27T11:11:15.279Z,97892.81
2023-01-27T11:15:24.561Z,97882.31
2023-01-27T11:19:31.036Z,97876.97
2023-01-27T11:23:45.991Z,97884.78
2023-01-27T11:28:00.048Z,97892.88
2023-01-27T11:32:08.205Z,97883.13
2023-01-27T11:36:10.181Z,97893.00
2023-01-27T11:40:17.460Z,97894.41
2023-01-27T11:44:21.108Z,97885.72
2023-01-27T11:48:23.625Z,97896.63
2023-01-27T11:52:29.123Z,97888.16
2023-01-27T11:56:33.500Z,97893.59
2023-01-27T12:00:38.687Z,97878.81
2023-01-27T12:04:52.324Z,97874.63
2023-01-27T12:08:54.349Z,97875.28
2023-01-27T12:12:57.430Z,97864.50
2023-01-27T12:17:02.357Z,97866.09
2023-01-27T12:21:06.874Z,97860.44
2023-01-27T12:25:16.259Z,97855.16
2023-01-27T12:29:26.265Z,97847.56
2023-01-27T12:33:30.094Z,97872.25
2023-01-27T12:37:33.974Z,97838.88
2023-01-27T12:41:36.896Z,97843.91
2023-01-27T12:45:39.017Z,97826.63
2023-01-27T12:49:44.673Z,97821.44
2023-01-27T12:53:48.178Z,97823.94
2023-01-27T12:57:50.223Z,97817.38
2023-01-27T13:02:12.415Z,97818.13
2023-01-27T13:06:17.101Z,97822.22
2023-01-27T13:10:20.763Z,97830.41
2023-01-27T13:14:22.951Z,97811.00
2023-01-27T13:18:25.179Z,97814.94
2023-01-27T13:22:27.878Z,97822.88
2023-01-27T13:26:31.650Z,97811.53
2023-01-27T13:30:36.974Z,97824.66
2023-01-27T13:34:39.225Z,97824.25
2023-01-27T13:39:00.032Z,97817.91
2023-01-27T13:43:02.962Z,97815.50
2023-01-27T13:47:11.304Z,97817.50
2023-01-27T13:51:15.385Z,97823.47
2023-01-27T13:55:19.873Z,97820.78
2023-01-27T13:59:30.876Z,97836.00
2023-01-27T14:03:48.227Z,97835.22
2023-01-27T14:08:13.697Z,97822.91
2023-01-27T14:12:15.642Z,97816.50
2023-01-27T14:16:22.490Z,97830.13
2023-01-27T14:20:30.798Z,97826.94
2023-01-27T14:24:38.739Z,97831.16
2023-01-27T14:28:53.344Z,97826.00
2023-01-27T14:32:55.512Z,97821.81
2023-01-27T14:36:57.662Z,97839.09
2023-01-27T14:41:18.851Z,97829.97
2023-01-27T14:45:23.965Z,97836.63
2023-01-27T14:49:49.145Z,97845.47
2023-01-27T14:53:58.950Z,97860.19
2023-01-27T14:58:10.872Z,97851.56
2023-01-27T15:02:25.598Z,97851.06
2023-01-27T15:06:30.833Z,97878.84
2023-01-27T15:10:33.726Z,97862.06
2023-01-27T15:14:35.821Z,97867.81
2023-01-27T15:18:38.174Z,97867.94
2023-01-27T15:22:40.288Z,97873.63
2023-01-27T15:26:42.773Z,97874.91
2023-01-27T15:31:05.056Z,97870.72
2023-01-27T15:35:22.461Z,97877.25
2023-01-27T15:39:35.643Z,97884.69
2023-01-27T15:44:02.669Z,97882.50
2023-01-27T15:48:08.713Z,97883.28
2023-01-27T15:52:30.878Z,97877.72
2023-01-27T15:56:48.445Z,97888.38
2023-01-27T16:00:52.518Z,97890.06
2023-01-27T16:04:56.723Z,97886.91
2023-01-27T16:09:00.827Z,97905.66
2023-01-27T16:13:15.041Z,97903.38
2023-01-27T16:17:22.582Z,97903.13
2023-01-27T16:21:34.173Z,97934.72
2023-01-27T16:25:36.290Z,97918.72
2023-01-27T16:29:40.440Z,97913.13
2023-01-27T16:33:44.138Z,97909.47
2023-01-27T16:38:00.368Z,97922.31
2023-01-27T16:42:03.346Z,97923.19
2023-01-27T16:46:05.583Z,97950.78
2023-01-27T16:50:27.688Z,97949.03
2023-01-27T16:54:37.920Z,97953.72
2023-01-27T16:58:46.708Z,97955.66
2023-01-27T17:02:51.053Z,97960.59
2023-01-27T17:06:56.805Z,97966.97
2023-01-27T17:11:05.148Z,97965.28
2023-01-27T17:15:33.692Z,97970.63
2023-01-27T17:19:36.625Z,97971.66
2023-01-27T17:23:39.351Z,97972.22
2023-01-27T17:27:42.885Z,97975.22
2023-01-27T17:31:45.575Z,97976.91
2023-01-27T17:35:55.425Z,97981.94
2023-01-27T17:39:58.820Z,97986.53
2023-01-27T17:44:03.840Z,97981.53
2023-01-27T17:48:05.894Z,97988.16
2023-01-27T17:52:10.227Z,97996.34
2023-01-27T17:56:18.620Z,98006.06
2023-01-27T18:14:53.315Z,98008.44
2023-01-27T18:42:41.985Z,98029.94
2023-01-27T18:46:44.424Z,98031.88
2023-01-27T18:50:47.311Z,98026.38
2023-01-27T18:54:53.155Z,98038.88
2023-01-27T18:58:55.529Z,98043.41
2023-01-27T19:03:01.154Z,98049.47
2023-01-27T19:07:11.135Z,98051.34
2023-01-27T19:11:16.638Z,98045.75
2023-01-27T19:15:19.273Z,98048.69
2023-01-27T19:19:21.276Z,98065.81
2023-01-27T19:23:24.032Z,98057.94
2023-01-27T19:27:27.104Z,98054.19
2023-01-27T19:31:29.146Z,98058.53
2023-01-27T19:35:32.294Z,98047.09
2023-01-27T19:39:34.304Z,98057.50
2023-01-27T19:43:36.481Z,98059.41
2023-01-27T19:47:38.732Z,98053.34
2023-01-27T19:51:40.773Z,98058.31
2023-01-27T19:55:43.193Z,98060.56
2023-01-27T19:59:45.935Z,98059.75
2023-01-27T20:03:48.159Z,98071.22
2023-01-27T20:07:50.620Z,98069.88
2023-01-27T20:11:52.635Z,98063.59
2023-01-27T20:15:57.297Z,98082.00
2023-01-27T20:19:59.299Z,98070.22
2023-01-27T20:24:01.811Z,98080.03
2023-01-27T20:28:03.825Z,98070.09
2023-01-27T20:32:09.299Z,98063.91
2023-01-27T20:36:13.698Z,98079.38
2023-01-27T20:40:17.009Z,98085.94
2023-01-27T20:44:18.997Z,98080.78
2023-01-27T20:48:21.617Z,98090.97
2023-01-27T20:52:25.163Z,98100.25
2023-01-27T20:56:27.297Z,98096.59
2023-01-27T21:00:29.464Z,98094.44
2023-01-27T21:04:31.877Z,98096.84
2023-01-27T21:08:34.264Z,98090.00
2023-01-27T21:12:36.259Z,98088.47
2023-01-27T21:16:38.240Z,98095.31
2023-01-27T21:20:40.439Z,98080.56
2023-01-27T21:24:42.601Z,98081.84
2023-01-27T21:28:44.893Z,98065.00
2023-01-27T21:32:46.904Z,98074.75
2023-01-27T21:36:49.280Z,98065.47
2023-01-27T21:40:53.088Z,98055.19
2023-01-27T21:45:15.086Z,98060.00
2023-01-27T21:49:18.731Z,98055.06
2023-01-27T21:53:22.994Z,98065.03
2023-01-27T21:57:25.100Z,98063.56
2023-01-27T22:01:27.248Z,98079.34
2023-01-27T22:05:30.375Z,98086.78
2023-01-27T22:09:32.357Z,98092.38
2023-01-27T22:13:35.048Z,98098.00
2023-01-27T22:17:37.457Z,98100.63
2023-01-27T22:21:39.404Z,98100.41
2023-01-27T22:25:41.444Z,98100.84
2023-01-27T22:29:43.382Z,98107.84
2023-01-27T22:33:45.399Z,98102.69
2023-01-27T22:37:49.296Z,98105.91
2023-01-27T22:41:51.362Z,98104.31
2023-01-27T22:45:53.452Z,98112.31
2023-01-27T22:49:55.427Z,98101.00
2023-01-27T22:53:57.613Z,98109.78
2023-01-27T22:57:59.857Z,98098.03
2023-01-27T23:02:02.878Z,98111.06
2023-01-27T23:06:05.952Z,98105.78
2023-01-27T23:10:08.463Z,98108.66
2023-01-27T23:14:10.464Z,98107.75
2023-01-27T23:18:12.527Z,98110.03
2023-01-27T23:22:14.525Z,98112.44
2023-01-27T23:26:16.842Z,98116.22
2023-01-27T23:30:19.897Z,98125.81
2023-01-27T23:34:22.173Z,98111.06
2023-01-27T23:38:32.479Z,98117.13
2023-01-27T23:42:35.415Z,98119.19
2023-01-27T23:46:37.355Z,98107.28
2023-01-27T23:50:39.519Z,98122.03
2023-01-27T23:54:41.652Z,98115.66
2023-01-27T23:58:44.288Z,98101.88
